createdAt,value
2023-08-11T00:01:50.174Z,15.10
2023-08-11T00:06:57.064Z,15.00
2023-08-11T00:12:01.331Z,14.80
2023-08-11T00:17:14.943Z,14.70
2023-08-11T00:22:20.453Z,14.60
2023-08-11T00:27:24.858Z,14.60
2023-08-11T00:32:31.091Z,14.60
2023-08-11T00:37:35.512Z,14.50
2023-08-11T00:42:39.763Z,14.50
2023-08-11T00:47:44.572Z,14.50
2023-08-11T00:52:49.433Z,14.50
2023-08-11T00:57:52.894Z,14.60
2023-08-11T01:02:59.860Z,14.60
2023-08-11T01:08:10.439Z,14.80
2023-08-11T01:13:19.504Z,14.70
2023-08-11T01:18:26.155Z,14.60
2023-08-11T01:23:31.962Z,14.50
2023-08-11T01:28:36.601Z,14.40
2023-08-11T01:33:40.604Z,14.30
2023-08-11T01:38:45.959Z,14.30
2023-08-11T01:43:50.687Z,14.30
2023-08-11T01:48:56.260Z,14.20
2023-08-11T01:54:01.494Z,14.20
2023-08-11T01:59:07.845Z,14.20
2023-08-11T02:04:11.753Z,14.00
2023-08-11T02:09:18.764Z,13.80
2023-08-11T02:14:22.924Z,13.90
2023-08-11T02:19:27.856Z,14.00
2023-08-11T02:24:33.625Z,13.90
2023-08-11T02:29:37.490Z,14.00
2023-08-11T02:34:42.697Z,14.00
2023-08-11T02:39:48.255Z,13.90
2023-08-11T02:44:53.378Z,13.90
2023-08-11T02:49:59.298Z,13.70
2023-08-11T02:55:06.683Z,13.50
2023-08-11T03:00:14.530Z,13.40
2023-08-11T03:05:20.237Z,13.30
2023-08-11T03:10:34.733Z,13.30
2023-08-11T03:15:48.406Z,13.30
2023-08-11T03:21:00.494Z,13.30
2023-08-11T03:26:13.428Z,13.40
2023-08-11T03:31:20.449Z,13.30
2023-08-11T03:36:32.720Z,13.20
2023-08-11T03:41:41.171Z,13.20
2023-08-11T03:46:45.201Z,13.10
2023-08-11T03:51:49.575Z,13.10
2023-08-11T03:56:56.450Z,13.10
2023-08-11T04:02:02.660Z,13.00
2023-08-11T04:07:07.800Z,13.00
2023-08-11T04:12:13.025Z,13.00
2023-08-11T04:17:17.750Z,13.00
2023-08-11T04:22:32.950Z,12.90
2023-08-11T04:27:46.294Z,12.90
2023-08-11T04:32:52.572Z,12.90
2023-08-11T04:37:56.239Z,12.90
2023-08-11T04:43:08.083Z,12.90
2023-08-11T04:48:28.827Z,12.90
2023-08-11T04:53:33.549Z,12.80
2023-08-11T04:58:47.664Z,12.80
2023-08-11T05:03:52.451Z,12.80
2023-08-11T05:09:01.600Z,12.90
2023-08-11T05:14:07.278Z,13.00
2023-08-11T05:19:12.034Z,13.10
2023-08-11T05:24:21.110Z,13.20
2023-08-11T05:29:27.667Z,13.30
2023-08-11T05:34:32.249Z,13.60
2023-08-11T05:39:40.432Z,13.80
2023-08-11T05:44:46.115Z,13.90
2023-08-11T05:49:52.913Z,14.00
2023-08-11T05:54:58.466Z,14.20
2023-08-11T06:00:07.704Z,14.30
2023-08-11T06:05:23.261Z,14.60
2023-08-11T06:10:29.372Z,14.80
2023-08-11T06:15:34.130Z,15.00
2023-08-11T06:20:46.909Z,15.40
2023-08-11T06:25:51.017Z,15.70
2023-08-11T06:30:58.446Z,16.10
2023-08-11T06:36:06.623Z,16.20
2023-08-11T06:41:11.090Z,16.50
2023-08-11T06:46:18.712Z,16.70
2023-08-11T06:51:23.742Z,16.90
2023-08-11T06:56:29.016Z,17.30
2023-08-11T07:01:36.482Z,17.50
2023-08-11T07:06:43.462Z,17.60
2023-08-11T07:11:49.661Z,18.00
2023-08-11T07:16:55.071Z,18.40
2023-08-11T07:22:06.204Z,18.80
2023-08-11T07:27:15.770Z,19.30
2023-08-11T07:32:24.227Z,19.50
2023-08-11T07:37:28.936Z,20.20
2023-08-11T07:42:32.541Z,20.40
2023-08-11T07:47:44.737Z,20.90
2023-08-11T07:52:48.484Z,21.60
2023-08-11T07:57:56.215Z,22.00
2023-08-11T08:03:06.379Z,22.50
2023-08-11T08:08:11.673Z,22.40
2023-08-11T08:13:19.756Z,22.80
2023-08-11T08:18:25.210Z,22.80
2023-08-11T08:23:31.071Z,23.70
2023-08-11T08:28:34.610Z,23.70
2023-08-11T08:33:43.599Z,23.80
2023-08-11T08:38:52.774Z,24.30
2023-08-11T08:44:00.044Z,24.80
2023-08-11T08:49:12.277Z,24.80
2023-08-11T08:54:15.882Z,25.10
2023-08-11T08:59:24.224Z,25.80
2023-08-11T09:04:42.674Z,25.90
2023-08-11T09:09:49.895Z,26.00
2023-08-11T09:14:55.053Z,27.10
2023-08-11T09:20:00.389Z,27.10
2023-08-11T09:25:05.142Z,27.40
2023-08-11T09:30:10.916Z,27.30
2023-08-11T09:35:16.273Z,27.30
2023-08-11T09:40:22.450Z,27.80
2023-08-11T09:45:32.657Z,28.50
2023-08-11T09:50:39.598Z,28.90
2023-08-11T09:55:44.311Z,28.40
2023-08-11T10:06:31.009Z,29.20
2023-08-11T10:11:35.807Z,29.30
2023-08-11T10:16:42.383Z,30.30
2023-08-11T10:21:50.160Z,30.80
2023-08-11T10:27:25.545Z,30.40
2023-08-11T10:32:37.061Z,30.30
2023-08-11T10:37:45.979Z,31.00
2023-08-11T10:42:52.223Z,31.50
2023-08-11T10:47:59.552Z,30.80
2023-08-11T10:53:09.309Z,30.50
2023-08-11T10:58:16.501Z,30.80
2023-08-11T11:03:20.736Z,30.50
2023-08-11T11:08:27.325Z,30.50
2023-08-11T11:13:31.842Z,29.90
2023-08-11T11:18:35.472Z,30.70
2023-08-11T11:23:45.478Z,30.80
2023-08-11T11:29:01.724Z,30.40
2023-08-11T11:34:08.231Z,30.50
2023-08-11T11:39:14.984Z,31.10
2023-08-11T11:44:19.599Z,31.00
2023-08-11T11:49:30.038Z,31.70
2023-08-11T11:54:38.853Z,32.00
2023-08-11T11:59:48.783Z,31.50
2023-08-11T12:04:57.166Z,31.70
2023-08-11T12:10:11.592Z,31.40
2023-08-11T12:15:25.987Z,31.30
2023-08-11T12:20:32.162Z,31.90
2023-08-11T12:25:39.418Z,31.00
2023-08-11T12:30:43.089Z,31.50
2023-08-11T12:35:54.710Z,32.30
2023-08-11T12:41:01.218Z,31.70
2023-08-11T12:46:06.742Z,32.70
2023-08-11T12:51:12.348Z,32.30
2023-08-11T12:56:18.541Z,32.00
2023-08-11T13:01:24.189Z,32.80
2023-08-11T13:06:30.396Z,32.90
2023-08-11T13:11:37.230Z,32.80
2023-08-11T13:16:42.695Z,33.10
2023-08-11T13:21:47.986Z,31.80
2023-08-11T13:26:56.077Z,32.20
2023-08-11T13:32:06.113Z,31.50
2023-08-11T13:37:10.226Z,30.90
2023-08-11T13:42:25.540Z,31.20
2023-08-11T13:47:29.866Z,31.80
2023-08-11T13:52:35.703Z,33.20
2023-08-11T13:57:41.517Z,32.50
2023-08-11T14:02:45.562Z,32.80
2023-08-11T14:07:51.016Z,32.50
2023-08-11T14:12:56.495Z,31.50
2023-08-11T14:18:01.346Z,31.60
2023-08-11T14:23:08.985Z,31.70
2023-08-11T14:28:34.665Z,30.90
2023-08-11T14:33:38.588Z,32.30
2023-08-11T14:38:42.718Z,33.60
2023-08-11T14:43:47.722Z,32.80
2023-08-11T14:48:58.199Z,32.70
2023-08-11T14:54:03.614Z,33.20
2023-08-11T14:59:51.908Z,31.60
2023-08-11T15:04:58.663Z,30.80
2023-08-11T15:10:08.540Z,33.30
2023-08-11T15:15:25.308Z,34.20
2023-08-11T15:20:55.530Z,33.70
2023-08-11T15:25:59.075Z,33.90
2023-08-11T15:31:06.001Z,34.10
2023-08-11T15:36:11.968Z,33.80
2023-08-11T15:41:16.068Z,34.30
2023-08-11T15:46:24.131Z,34.70
2023-08-11T15:51:29.722Z,35.10
2023-08-11T15:56:36.238Z,33.80
2023-08-11T16:01:55.842Z,33.70
2023-08-11T16:07:09.684Z,33.50
2023-08-11T16:12:14.843Z,33.30
2023-08-11T16:17:22.450Z,33.10
2023-08-11T16:22:27.333Z,34.00
2023-08-11T16:27:35.590Z,34.10
2023-08-11T16:32:50.697Z,34.60
2023-08-11T16:38:29.665Z,34.50
2023-08-11T16:43:42.676Z,33.70
2023-08-11T16:48:48.345Z,34.40
2023-08-11T16:53:52.120Z,33.40
2023-08-11T16:58:57.158Z,33.60
2023-08-11T17:04:07.339Z,31.20
2023-08-11T17:09:17.690Z,32.10
2023-08-11T17:14:22.299Z,32.90
2023-08-11T17:19:27.787Z,32.90
2023-08-11T17:24:33.586Z,32.80
2023-08-11T17:29:38.222Z,32.50
2023-08-11T17:34:56.591Z,32.70
2023-08-11T17:40:06.850Z,30.40
2023-08-11T17:45:24.424Z,29.60
2023-08-11T17:50:41.522Z,30.90
2023-08-11T17:55:47.907Z,30.80
2023-08-11T18:06:14.558Z,27.80
2023-08-11T18:11:24.412Z,27.80
2023-08-11T18:22:52.617Z,27.40
2023-08-11T18:27:57.789Z,27.50
2023-08-11T18:33:17.388Z,27.40
2023-08-11T18:39:04.572Z,27.20
2023-08-11T18:44:38.403Z,26.80
2023-08-11T18:50:08.976Z,26.60
2023-08-11T18:55:43.852Z,26.30
2023-08-11T19:00:50.576Z,25.80
2023-08-11T19:05:56.753Z,25.70
2023-08-11T19:11:04.717Z,25.10
2023-08-11T19:16:16.169Z,24.70
2023-08-11T19:21:22.550Z,24.40
2023-08-11T19:26:34.298Z,24.10
2023-08-11T19:31:42.683Z,23.80
2023-08-11T19:36:52.800Z,23.60
2023-08-11T19:42:12.439Z,23.70
2023-08-11T19:47:16.608Z,23.50
2023-08-11T19:52:26.703Z,23.30
2023-08-11T19:57:35.911Z,23.10
2023-08-11T20:02:41.691Z,23.10
2023-08-11T20:07:46.541Z,23.00
2023-08-11T20:12:51.973Z,23.20
2023-08-11T20:17:55.363Z,22.80
2023-08-11T20:23:00.148Z,22.80
2023-08-11T20:28:06.345Z,22.70
2023-08-11T20:33:10.809Z,22.70
2023-08-11T20:38:15.492Z,22.70
2023-08-11T20:43:23.640Z,22.70
2023-08-11T20:48:27.146Z,22.60
2023-08-11T20:53:30.422Z,22.60
2023-08-11T20:58:35.679Z,22.70
2023-08-11T21:03:41.634Z,22.50
2023-08-11T21:08:46.879Z,22.30
2023-08-11T21:13:53.676Z,22.10
2023-08-11T21:18:58.404Z,22.00
2023-08-11T21:24:02.158Z,22.00
2023-08-11T21:29:17.942Z,22.00
2023-08-11T21:34:24.995Z,22.00
2023-08-11T21:39:34.663Z,22.10
2023-08-11T21:44:40.655Z,22.00
2023-08-11T21:49:47.401Z,21.90
2023-08-11T21:54:52.636Z,21.80
2023-08-11T21:59:59.107Z,21.80
2023-08-11T22:05:02.532Z,22.00
2023-08-11T22:10:07.168Z,22.00
2023-08-11T22:15:14.046Z,21.90
2023-08-11T22:20:19.514Z,22.10
2023-08-11T22:25:23.739Z,22.10
2023-08-11T22:30:28.671Z,22.10
2023-08-11T22:35:32.468Z,22.00
2023-08-11T22:40:36.138Z,22.00
2023-08-11T22:45:41.029Z,22.00
2023-08-11T22:50:47.286Z,22.00
2023-08-11T22:55:53.454Z,21.90
2023-08-11T23:00:58.458Z,22.00
2023-08-11T23:06:02.237Z,22.00
2023-08-11T23:11:06.588Z,21.90
2023-08-11T23:16:13.274Z,21.90
2023-08-11T23:21:17.709Z,22.00
2023-08-11T23:26:22.984Z,22.10
2023-08-11T23:31:27.997Z,22.00
2023-08-11T23:36:31.110Z,22.10
2023-08-11T23:41:34.758Z,22.00
2023-08-11T23:46:40.907Z,21.80
2023-08-11T23:51:48.552Z,21.60
2023-08-11T23:56:52.976Z,21.30
